Time;durP1;ratioP1;P1;durP2;ratioP2;P2;SDS_P1;SDS_P2;PMS_P1;PMS_P2;Temp;Humidity;BMP_temperature;BMP_pressure;BME280_temperature;BME280_humidity;BME280_pressure;Samples;Min_cycle;Max_cycle;Signal;HPM_P1;HPM_P2
2023/09/21 00:01:23;;;;;;;2.67;2.47;;;18.10;99.90;;;;;;5069267;28;20577;-57
2023/09/21 00:03:51;;;;;;;2.70;2.50;;;18.10;99.90;;;;;;5075002;28;20969;-58
2023/09/21 00:06:19;;;;;;;4.00;2.70;;;18.10;99.90;;;;;;5073507;28;20896;-58
2023/09/21 00:08:47;;;;;;;2.60;2.40;;;18.10;99.90;;;;;;5075262;28;20524;-58
2023/09/21 00:11:16;;;;;;;2.87;2.40;;;18.10;99.90;;;;;;5074055;28;21065;-57
2023/09/21 00:13:44;;;;;;;2.87;2.40;;;18.10;99.90;;;;;;5076578;28;20565;-59
2023/09/21 00:16:12;;;;;;;3.03;2.60;;;18.10;99.90;;;;;;5079879;28;20579;-58
2023/09/21 00:18:43;;;;;;;2.40;2.20;;;18.00;99.90;;;;;;5083340;28;20465;-58
2023/09/21 00:21:12;;;;;;;2.80;2.60;;;18.00;99.90;;;;;;5084448;28;20487;-58
2023/09/21 00:23:41;;;;;;;3.20;2.90;;;18.00;99.90;;;;;;5083754;28;20515;-61
2023/09/21 00:26:10;;;;;;;3.53;2.80;;;18.00;99.90;;;;;;5078905;28;20588;-59
2023/09/21 00:28:38;;;;;;;2.83;2.60;;;18.00;99.90;;;;;;5079978;28;20488;-58
2023/09/21 00:31:06;;;;;;;2.53;2.20;;;18.00;99.90;;;;;;5080693;28;20516;-58
2023/09/21 00:33:34;;;;;;;2.90;2.47;;;17.90;99.90;;;;;;5078437;28;20465;-58
2023/09/21 00:36:05;;;;;;;2.93;2.40;;;17.90;99.90;;;;;;5071284;28;20537;-59
2023/09/21 00:38:33;;;;;;;2.60;2.40;;;17.90;99.90;;;;;;5072913;28;20793;-56
2023/09/21 00:41:04;;;;;;;2.47;2.27;;;17.80;99.90;;;;;;5068895;28;20469;-58
2023/09/21 00:43:32;;;;;;;3.50;2.33;;;17.80;99.90;;;;;;5065595;28;21017;-58
2023/09/21 00:46:04;;;;;;;5.23;3.40;;;17.80;99.90;;;;;;5063474;28;20574;-59
2023/09/21 00:48:36;;;;;;;2.60;2.40;;;17.80;99.90;;;;;;5069949;28;20557;-58
2023/09/21 00:51:09;;;;;;;2.53;2.37;;;17.80;99.90;;;;;;5065698;28;20480;-57
2023/09/21 00:53:39;;;;;;;2.83;2.50;;;17.70;99.90;;;;;;5070958;28;20820;-57
2023/09/21 00:56:11;;;;;;;3.97;3.03;;;17.70;99.90;;;;;;5067142;28;21048;-57
2023/09/21 00:58:44;;;;;;;2.50;2.30;;;17.60;99.90;;;;;;5069050;28;20491;-58
2023/09/21 01:01:14;;;;;;;2.57;2.37;;;17.60;99.90;;;;;;5068797;28;21117;-58
2023/09/21 01:03:43;;;;;;;2.40;2.20;;;17.60;99.90;;;;;;5069237;28;20505;-58
2023/09/21 01:06:16;;;;;;;3.07;2.77;;;17.60;99.90;;;;;;5068745;28;20499;-57
2023/09/21 01:08:45;;;;;;;3.40;2.30;;;17.60;99.90;;;;;;5071208;28;20496;-59
2023/09/21 01:11:14;;;;;;;2.80;2.60;;;17.60;99.90;;;;;;5082054;28;20583;-59
2023/09/21 01:13:43;;;;;;;2.73;2.53;;;17.60;99.90;;;;;;5082393;28;20988;-58
2023/09/21 01:16:11;;;;;;;2.53;2.33;;;17.60;99.90;;;;;;5078828;28;21076;-59
2023/09/21 01:18:40;;;;;;;2.70;2.50;;;17.60;99.90;;;;;;5081421;28;20453;-58
2023/09/21 01:21:10;;;;;;;3.00;2.50;;;17.50;99.90;;;;;;5078445;28;20984;-59
2023/09/21 01:23:45;;;;;;;3.43;2.70;;;17.50;99.90;;;;;;5079997;28;20476;-57
2023/09/21 01:26:14;;;;;;;2.67;2.47;;;17.50;99.90;;;;;;5080989;28;20522;-58
2023/09/21 01:28:42;;;;;;;2.83;2.60;;;17.50;99.90;;;;;;5082060;28;20497;-59
2023/09/21 01:31:13;;;;;;;2.73;2.47;;;17.40;99.90;;;;;;5080552;28;20985;-59
2023/09/21 01:33:43;;;;;;;2.60;2.40;;;17.40;99.90;;;;;;5078404;28;20472;-59
2023/09/21 01:36:12;;;;;;;3.03;2.27;;;17.40;99.90;;;;;;5078330;28;20515;-59
2023/09/21 01:38:45;;;;;;;2.70;2.33;;;17.40;99.90;;;;;;5082571;28;20488;-58
2023/09/21 01:41:15;;;;;;;2.70;2.50;;;17.40;99.90;;;;;;5075897;28;20485;-59
2023/09/21 01:43:44;;;;;;;3.87;2.43;;;17.30;99.90;;;;;;5063173;28;20480;-59
2023/09/21 01:46:14;;;;;;;3.17;2.60;;;17.30;99.90;;;;;;5065832;28;20516;-58
2023/09/21 01:48:42;;;;;;;2.47;2.27;;;17.30;99.90;;;;;;5069022;28;20483;-58
2023/09/21 01:51:12;;;;;;;2.60;2.50;;;17.20;99.90;;;;;;5064239;28;20556;-56
2023/09/21 01:53:44;;;;;;;2.90;2.70;;;17.20;99.90;;;;;;5071054;28;20994;-58
2023/09/21 01:56:12;;;;;;;2.63;2.43;;;17.20;99.90;;;;;;5065320;28;20571;-58
2023/09/21 01:58:40;;;;;;;2.70;2.50;;;17.20;99.90;;;;;;5063002;28;20486;-59
2023/09/21 02:01:08;;;;;;;2.63;2.33;;;17.10;99.90;;;;;;5065516;28;20528;-58
2023/09/21 02:03:37;;;;;;;2.40;2.20;;;17.10;99.90;;;;;;5069001;28;20559;-58
2023/09/21 02:06:06;;;;;;;2.83;2.60;;;17.10;99.90;;;;;;5074144;28;20550;-58
2023/09/21 02:08:34;;;;;;;2.40;2.20;;;17.00;99.90;;;;;;5073807;28;20567;-59
2023/09/21 02:11:05;;;;;;;3.03;2.47;;;17.00;99.90;;;;;;5076084;28;20496;-59
2023/09/21 02:13:34;;;;;;;2.97;2.77;;;17.00;99.90;;;;;;5073761;28;20572;-59
2023/09/21 02:16:02;;;;;;;4.30;2.57;;;17.00;99.90;;;;;;5077363;28;21066;-57
2023/09/21 02:18:31;;;;;;;2.70;2.50;;;17.00;99.90;;;;;;5079261;28;20976;-59
2023/09/21 02:21:01;;;;;;;4.20;3.23;;;17.00;99.90;;;;;;5078401;28;20856;-58
2023/09/21 02:23:29;;;;;;;3.67;2.70;;;17.00;99.90;;;;;;5081311;28;20457;-57
2023/09/21 02:25:57;;;;;;;5.10;2.80;;;16.90;99.90;;;;;;5080876;28;20492;-58
2023/09/21 02:28:27;;;;;;;3.60;2.93;;;16.90;99.90;;;;;;5074110;28;20485;-58
2023/09/21 02:30:55;;;;;;;3.13;2.20;;;16.80;99.90;;;;;;5080003;28;20571;-59
2023/09/21 02:33:23;;;;;;;3.63;2.47;;;16.80;99.90;;;;;;5076501;28;20570;-58
2023/09/21 02:35:51;;;;;;;3.20;2.77;;;16.80;99.90;;;;;;5072553;28;20485;-58
2023/09/21 02:38:20;;;;;;;2.80;2.60;;;16.80;99.90;;;;;;5074596;28;21046;-59
2023/09/21 02:40:48;;;;;;;4.30;2.70;;;16.70;99.90;;;;;;5076236;28;20655;-57
2023/09/21 02:43:17;;;;;;;2.70;2.50;;;16.70;99.90;;;;;;5068663;28;20469;-61
2023/09/21 02:45:47;;;;;;;2.83;2.63;;;16.70;99.90;;;;;;5075821;28;20969;-58
2023/09/21 02:48:15;;;;;;;2.90;2.70;;;16.70;99.90;;;;;;5075418;28;20497;-58
2023/09/21 02:50:48;;;;;;;3.50;3.20;;;16.70;99.90;;;;;;5074739;28;20492;-55
2023/09/21 02:53:17;;;;;;;2.70;2.50;;;16.70;99.90;;;;;;5074157;28;20563;-59
2023/09/21 02:55:45;;;;;;;3.07;2.47;;;16.60;99.90;;;;;;5068297;28;20549;-56
2023/09/21 02:58:14;;;;;;;4.10;2.90;;;16.60;99.90;;;;;;5065627;28;20634;-58
2023/09/21 03:00:45;;;;;;;4.07;3.40;;;16.60;99.90;;;;;;5066476;28;20682;-58
2023/09/21 03:03:16;;;;;;;3.27;3.00;;;16.50;99.90;;;;;;5066015;28;20543;-59
2023/09/21 03:05:46;;;;;;;3.50;2.73;;;16.40;99.90;;;;;;5067799;28;20488;-57
2023/09/21 03:08:15;;;;;;;4.20;2.63;;;16.40;99.90;;;;;;5067861;28;20577;-58
2023/09/21 03:10:44;;;;;;;3.37;2.80;;;16.40;99.90;;;;;;5067444;28;20554;-59
2023/09/21 03:13:17;;;;;;;2.83;2.60;;;16.40;99.90;;;;;;5070741;28;20550;-59
2023/09/21 03:15:45;;;;;;;3.50;3.10;;;16.40;99.90;;;;;;5067787;28;20503;-58
2023/09/21 03:18:15;;;;;;;2.83;2.40;;;16.40;99.90;;;;;;5061105;28;21238;-59
2023/09/21 03:20:45;;;;;;;3.20;2.90;;;16.40;99.90;;;;;;5077651;28;20461;-58
2023/09/21 03:23:15;;;;;;;2.93;2.33;;;16.40;99.90;;;;;;5078224;28;20471;-57
2023/09/21 03:25:44;;;;;;;2.63;2.43;;;16.40;99.90;;;;;;5078292;28;20579;-59
2023/09/21 03:28:14;;;;;;;4.10;2.97;;;16.40;99.90;;;;;;5077979;28;20476;-58
2023/09/21 03:30:43;;;;;;;2.93;2.43;;;16.30;99.90;;;;;;5079034;28;20942;-58
2023/09/21 03:33:12;;;;;;;3.50;3.20;;;16.30;99.90;;;;;;5075143;28;20564;-59
2023/09/21 03:35:41;;;;;;;3.40;3.10;;;16.30;99.90;;;;;;5075809;28;20504;-59
2023/09/21 03:38:12;;;;;;;3.63;2.37;;;16.20;99.90;;;;;;5073881;28;20828;-58
2023/09/21 03:40:41;;;;;;;9.50;3.20;;;16.20;99.90;;;;;;5071574;28;20488;-58
2023/09/21 03:43:10;;;;;;;3.57;3.27;;;16.20;99.90;;;;;;5073143;28;21067;-59
2023/09/21 03:45:38;;;;;;;4.57;4.13;;;16.20;99.90;;;;;;5079692;28;21077;-58
2023/09/21 03:48:08;;;;;;;2.90;2.63;;;16.20;99.90;;;;;;5079439;28;20471;-59
2023/09/21 03:50:37;;;;;;;4.30;3.17;;;16.20;99.90;;;;;;5083069;28;20516;-57
2023/09/21 03:53:08;;;;;;;3.03;2.83;;;16.20;99.90;;;;;;5079070;28;20508;-58
2023/09/21 03:55:38;;;;;;;4.10;2.70;;;16.10;99.90;;;;;;5072370;28;21083;-59
2023/09/21 03:58:07;;;;;;;4.50;3.07;;;16.10;99.90;;;;;;5071697;28;20477;-58
2023/09/21 04:00:37;;;;;;;4.63;2.70;;;16.10;99.90;;;;;;5066615;28;20583;-57
2023/09/21 04:03:09;;;;;;;3.10;2.80;;;16.10;99.90;;;;;;5068775;28;20680;-58
2023/09/21 04:05:40;;;;;;;3.77;2.80;;;16.10;99.90;;;;;;5071046;28;20635;-58
2023/09/21 04:08:10;;;;;;;2.90;2.60;;;16.10;99.90;;;;;;5072035;28;20933;-59
2023/09/21 04:10:41;;;;;;;3.27;2.90;;;16.00;99.90;;;;;;5068356;28;20900;-57
2023/09/21 04:13:09;;;;;;;3.10;2.80;;;16.00;99.90;;;;;;5072414;28;20485;-58
2023/09/21 04:15:37;;;;;;;3.70;2.80;;;16.00;99.90;;;;;;5068002;28;20481;-58
2023/09/21 04:18:08;;;;;;;3.73;3.40;;;16.00;99.90;;;;;;5062744;28;20470;-58
2023/09/21 04:20:40;;;;;;;2.87;2.60;;;16.10;99.90;;;;;;5065915;28;20465;-59
2023/09/21 04:23:10;;;;;;;3.17;2.70;;;16.00;99.90;;;;;;5069095;28;20560;-58
2023/09/21 04:25:38;;;;;;;3.80;2.70;;;16.00;99.90;;;;;;5068999;28;23243;-59
2023/09/21 04:28:07;;;;;;;3.47;2.93;;;16.00;99.90;;;;;;5071159;28;20480;-57
2023/09/21 04:30:35;;;;;;;4.07;3.10;;;16.10;99.90;;;;;;5070148;28;20584;-58
2023/09/21 04:33:04;;;;;;;4.80;2.80;;;16.10;99.90;;;;;;5065488;28;20870;-58
2023/09/21 04:35:33;;;;;;;4.10;3.00;;;16.10;99.90;;;;;;5072700;28;20595;-58
2023/09/21 04:38:03;;;;;;;3.90;2.93;;;16.10;99.90;;;;;;5070787;28;20542;-58
2023/09/21 04:40:32;;;;;;;3.13;2.93;;;16.10;99.90;;;;;;5071877;28;20979;-57
2023/09/21 04:43:01;;;;;;;3.67;2.87;;;16.10;99.90;;;;;;5064088;28;20500;-59
2023/09/21 04:45:32;;;;;;;2.97;2.77;;;16.10;99.90;;;;;;5068873;28;20469;-58
2023/09/21 04:48:03;;;;;;;2.97;2.77;;;16.10;99.90;;;;;;5068309;28;20593;-59
2023/09/21 04:50:32;;;;;;;3.23;2.63;;;16.10;99.90;;;;;;5068300;28;20981;-58
2023/09/21 04:53:00;;;;;;;4.03;2.77;;;16.10;99.90;;;;;;5072487;28;20486;-59
2023/09/21 04:55:28;;;;;;;6.00;3.10;;;16.10;99.90;;;;;;5078475;28;20998;-59
2023/09/21 04:57:58;;;;;;;3.60;3.30;;;16.00;99.90;;;;;;5075250;28;20476;-59
2023/09/21 05:00:26;;;;;;;4.03;3.33;;;16.00;99.90;;;;;;5073015;28;20547;-57
2023/09/21 05:02:54;;;;;;;4.93;3.30;;;16.00;99.90;;;;;;5069030;28;20488;-58
2023/09/21 05:05:24;;;;;;;3.60;3.27;;;16.00;99.90;;;;;;5066355;28;20566;-59
2023/09/21 05:07:53;;;;;;;3.70;3.10;;;16.00;99.90;;;;;;5061896;28;20495;-59
2023/09/21 05:10:21;;;;;;;5.37;3.27;;;16.10;99.90;;;;;;5063506;28;20496;-57
2023/09/21 05:12:51;;;;;;;3.07;2.87;;;16.00;99.90;;;;;;5070537;28;20496;-59
2023/09/21 05:15:22;;;;;;;3.90;3.30;;;16.00;99.90;;;;;;5066462;28;20481;-58
2023/09/21 05:17:50;;;;;;;3.47;2.93;;;16.00;99.90;;;;;;5063804;28;20476;-58
2023/09/21 05:20:19;;;;;;;3.77;3.20;;;16.00;99.90;;;;;;5074527;28;20480;-56
2023/09/21 05:22:48;;;;;;;3.80;3.33;;;16.00;99.90;;;;;;5069201;28;20583;-59
2023/09/21 05:25:16;;;;;;;5.93;3.17;;;16.00;99.90;;;;;;5077558;28;20464;-60
2023/09/21 05:27:44;;;;;;;4.73;3.43;;;16.00;99.90;;;;;;5071710;28;20460;-60
2023/09/21 05:30:14;;;;;;;4.70;3.20;;;16.00;99.90;;;;;;5069167;28;21175;-58
2023/09/21 05:32:43;;;;;;;3.20;3.00;;;16.10;99.90;;;;;;5078262;28;21033;-59
2023/09/21 05:35:15;;;;;;;3.60;3.00;;;16.10;99.90;;;;;;5073968;28;20480;-56
2023/09/21 05:37:45;;;;;;;3.37;3.07;;;16.10;99.90;;;;;;5076808;28;20591;-60
2023/09/21 05:40:13;;;;;;;4.90;3.37;;;16.10;99.90;;;;;;5074047;28;20962;-63
2023/09/21 05:42:41;;;;;;;3.73;3.20;;;16.10;99.90;;;;;;5071517;28;20568;-62
2023/09/21 05:45:09;;;;;;;6.10;3.27;;;16.10;99.90;;;;;;5068758;28;20468;-63
2023/09/21 05:47:38;;;;;;;3.60;3.03;;;16.10;99.90;;;;;;5069447;28;20868;-62
2023/09/21 05:50:08;;;;;;;4.53;2.90;;;16.10;99.90;;;;;;5069378;28;20476;-64
2023/09/21 05:52:36;;;;;;;3.93;3.13;;;16.10;99.90;;;;;;5072894;28;20822;-62
2023/09/21 05:55:05;;;;;;;3.70;3.30;;;16.00;99.90;;;;;;5074971;28;21024;-62
2023/09/21 05:57:33;;;;;;;5.90;3.60;;;16.00;99.90;;;;;;5078370;28;21550;-62
2023/09/21 06:00:01;;;;;;;6.13;3.50;;;16.00;99.90;;;;;;5075583;28;20567;-63
2023/09/21 06:02:29;;;;;;;4.27;3.00;;;16.10;99.90;;;;;;5066921;28;20488;-60
2023/09/21 06:04:57;;;;;;;5.40;3.63;;;16.10;99.90;;;;;;5070077;28;20559;-60
2023/09/21 06:07:27;;;;;;;4.03;3.50;;;16.20;99.90;;;;;;5069122;28;20508;-60
2023/09/21 06:09:55;;;;;;;5.20;3.77;;;16.20;99.90;;;;;;5068658;28;20473;-60
2023/09/21 06:12:25;;;;;;;5.97;3.37;;;16.20;99.90;;;;;;5065766;28;20498;-58
2023/09/21 06:14:55;;;;;;;20.93;5.67;;;16.20;99.90;;;;;;5068498;28;20468;-60
2023/09/21 06:17:23;;;;;;;12.63;4.30;;;16.20;99.90;;;;;;5071217;28;20484;-60
2023/09/21 06:19:53;;;;;;;6.37;3.20;;;16.20;99.90;;;;;;5067769;28;21132;-60
2023/09/21 06:22:21;;;;;;;5.80;3.40;;;16.30;99.90;;;;;;5067505;28;20653;-60
2023/09/21 06:24:50;;;;;;;8.73;3.33;;;16.30;99.90;;;;;;5073159;28;20609;-60
2023/09/21 06:27:19;;;;;;;5.10;3.13;;;16.50;99.90;;;;;;5074731;28;20492;-59
2023/09/21 06:29:49;;;;;;;4.03;3.63;;;17.20;99.90;;;;;;5074781;28;22203;-59
2023/09/21 06:32:18;;;;;;;3.97;3.27;;;18.20;99.90;;;;;;5071066;28;20588;-60
2023/09/21 06:34:47;;;;;;;5.13;3.53;;;18.60;99.90;;;;;;5075781;28;20487;-59
2023/09/21 06:37:18;;;;;;;5.07;3.43;;;18.50;99.90;;;;;;5077690;28;21089;-60
2023/09/21 06:39:46;;;;;;;4.23;3.60;;;18.20;99.90;;;;;;5076852;28;20548;-60
2023/09/21 06:42:16;;;;;;;4.80;3.57;;;18.00;99.90;;;;;;5074444;28;20480;-59
2023/09/21 06:44:44;;;;;;;3.93;3.17;;;17.80;99.90;;;;;;5072499;28;20549;-60
2023/09/21 06:47:12;;;;;;;5.50;3.30;;;17.60;99.90;;;;;;5081236;28;20480;-60
2023/09/21 06:49:43;;;;;;;7.37;3.40;;;17.50;99.90;;;;;;5074090;28;20480;-59
2023/09/21 06:52:13;;;;;;;6.27;3.10;;;17.40;99.90;;;;;;5079048;28;20522;-60
2023/09/21 06:54:41;;;;;;;4.60;3.83;;;17.40;99.90;;;;;;5077425;28;20940;-58
2023/09/21 06:57:09;;;;;;;4.33;3.60;;;17.40;99.90;;;;;;5081272;28;20521;-59
2023/09/21 06:59:39;;;;;;;6.30;3.30;;;17.40;99.90;;;;;;5077741;28;20611;-60
2023/09/21 07:02:07;;;;;;;4.30;3.90;;;17.40;99.90;;;;;;5074218;28;20523;-60
2023/09/21 07:04:36;;;;;;;3.70;3.10;;;17.40;99.90;;;;;;5072582;28;20496;-60
2023/09/21 07:07:05;;;;;;;4.67;3.50;;;17.40;99.90;;;;;;5076543;28;20998;-60
2023/09/21 07:09:35;;;;;;;3.97;3.13;;;17.50;99.90;;;;;;5073246;28;20472;-60
2023/09/21 07:12:04;;;;;;;3.40;3.10;;;17.60;99.90;;;;;;5076880;28;20488;-59
2023/09/21 07:14:35;;;;;;;3.77;3.07;;;17.60;99.90;;;;;;5074464;28;20606;-60
2023/09/21 07:17:06;;;;;;;3.53;3.23;;;17.70;99.90;;;;;;5074565;28;20492;-60
2023/09/21 07:19:34;;;;;;;5.80;3.17;;;17.70;99.90;;;;;;5072837;28;20464;-59
2023/09/21 07:22:03;;;;;;;4.60;3.13;;;17.80;99.90;;;;;;5073077;28;20561;-60
2023/09/21 07:24:32;;;;;;;3.90;2.90;;;17.80;99.90;;;;;;5082365;28;20527;-60
2023/09/21 07:27:01;;;;;;;6.33;2.87;;;17.90;99.90;;;;;;5076166;28;20579;-60
2023/09/21 07:29:30;;;;;;;4.83;3.00;;;17.90;99.90;;;;;;5083087;28;20601;-64
2023/09/21 07:31:59;;;;;;;4.20;3.27;;;18.00;99.90;;;;;;5083917;28;20476;-62
2023/09/21 07:34:29;;;;;;;6.23;2.90;;;18.10;99.90;;;;;;5082308;28;21006;-63
2023/09/21 07:36:57;;;;;;;4.50;3.20;;;18.20;99.90;;;;;;5086773;28;20507;-62
2023/09/21 07:39:25;;;;;;;3.47;3.17;;;18.20;99.90;;;;;;5083507;28;20489;-63
2023/09/21 07:41:53;;;;;;;3.40;3.10;;;18.20;99.90;;;;;;5084640;28;20867;-63
2023/09/21 07:44:22;;;;;;;3.40;2.93;;;18.30;99.90;;;;;;5080778;28;20568;-63
2023/09/21 07:46:52;;;;;;;4.23;3.00;;;18.30;99.90;;;;;;5084176;28;20988;-63
2023/09/21 07:49:20;;;;;;;3.17;2.87;;;18.40;99.90;;;;;;5083817;28;20487;-63
2023/09/21 07:51:50;;;;;;;4.30;2.90;;;18.50;99.90;;;;;;5083414;28;20476;-62
2023/09/21 07:54:18;;;;;;;3.43;2.87;;;18.60;99.90;;;;;;5069585;28;20544;-63
2023/09/21 07:56:46;;;;;;;3.20;2.60;;;18.60;99.90;;;;;;5079309;28;20484;-65
2023/09/21 07:59:15;;;;;;;3.27;2.80;;;18.70;99.90;;;;;;5077327;28;20957;-62
2023/09/21 08:01:44;;;;;;;4.83;2.93;;;18.80;99.90;;;;;;5079526;28;20495;-63
2023/09/21 08:04:12;;;;;;;3.57;3.20;;;18.90;99.90;;;;;;5081111;28;20462;-61
2023/09/21 08:06:41;;;;;;;3.20;3.00;;;18.90;99.90;;;;;;5076333;28;20484;-61
2023/09/21 08:09:10;;;;;;;3.23;2.87;;;19.00;99.90;;;;;;5082468;28;20653;-62
2023/09/21 08:11:57;;;;;;;3.00;2.80;;;19.20;99.90;;;;;;5082710;28;20496;-62
2023/09/21 08:14:26;;;;;;;4.27;3.30;;;19.30;99.90;;;;;;5084533;28;20537;-65
2023/09/21 08:16:54;;;;;;;4.70;3.13;;;19.30;99.90;;;;;;5084222;28;20578;-62
2023/09/21 08:19:22;;;;;;;3.13;2.87;;;19.40;99.90;;;;;;5077553;28;20548;-62
2023/09/21 08:21:51;;;;;;;2.87;2.50;;;19.50;99.90;;;;;;5084145;28;20483;-65
2023/09/21 08:24:20;;;;;;;4.57;2.83;;;19.60;99.90;;;;;;5083530;28;20468;-62
2023/09/21 08:26:48;;;;;;;3.13;2.43;;;19.60;99.90;;;;;;5080935;28;20499;-62
2023/09/21 08:29:16;;;;;;;3.40;2.77;;;19.70;99.90;;;;;;5083024;28;20957;-62
2023/09/21 08:31:46;;;;;;;2.87;2.67;;;19.80;99.90;;;;;;5077569;28;20486;-62
2023/09/21 08:34:14;;;;;;;4.40;3.33;;;19.90;99.90;;;;;;5079860;28;20556;-62
2023/09/21 08:36:44;;;;;;;3.83;3.03;;;20.00;99.90;;;;;;5080591;28;20488;-64
2023/09/21 08:39:12;;;;;;;2.93;2.67;;;20.10;99.90;;;;;;5083104;28;20898;-62
2023/09/21 08:41:48;;;;;;;4.30;2.80;;;20.20;99.90;;;;;;5079333;28;20577;-64
2023/09/21 08:44:18;;;;;;;3.23;2.80;;;20.30;99.90;;;;;;5077807;28;21145;-62
2023/09/21 08:46:47;;;;;;;5.40;2.60;;;20.40;99.90;;;;;;5079378;28;20902;-63
2023/09/21 08:49:16;;;;;;;3.90;2.80;;;20.60;99.90;;;;;;5080510;28;20857;-62
2023/09/21 08:51:45;;;;;;;3.10;2.80;;;20.70;99.90;;;;;;5078467;28;20561;-63
2023/09/21 08:54:14;;;;;;;3.00;2.30;;;20.80;99.90;;;;;;5078468;28;20944;-60
2023/09/21 08:56:47;;;;;;;2.73;2.43;;;21.00;99.90;;;;;;5083220;28;20583;-60
2023/09/21 08:59:20;;;;;;;3.03;2.77;;;21.10;99.90;;;;;;5079484;28;20564;-61
2023/09/21 09:01:48;;;;;;;3.77;2.60;;;21.10;99.90;;;;;;5080994;28;20510;-60
2023/09/21 09:04:18;;;;;;;4.00;2.53;;;21.20;99.90;;;;;;5080889;28;20457;-65
2023/09/21 09:06:47;;;;;;;2.60;2.40;;;21.20;99.90;;;;;;5079217;28;20495;-63
2023/09/21 09:09:16;;;;;;;3.40;2.93;;;21.20;99.90;;;;;;5079963;28;20479;-66
2023/09/21 09:11:46;;;;;;;2.63;2.43;;;21.20;99.90;;;;;;5074451;28;20489;-63
2023/09/21 09:14:16;;;;;;;2.80;2.60;;;21.30;99.90;;;;;;5073384;28;20503;-62
2023/09/21 09:16:46;;;;;;;2.87;2.67;;;21.30;99.90;;;;;;5074177;28;20522;-64
2023/09/21 09:19:15;;;;;;;3.63;3.00;;;21.30;99.90;;;;;;5078770;28;20464;-61
2023/09/21 09:21:44;;;;;;;2.93;2.40;;;21.40;99.90;;;;;;5081503;28;20876;-63
2023/09/21 09:24:13;;;;;;;3.93;2.70;;;21.50;99.90;;;;;;5082914;28;20471;-63
2023/09/21 09:26:43;;;;;;;3.80;2.50;;;21.50;99.90;;;;;;5081810;28;21118;-65
2023/09/21 09:29:13;;;;;;;3.97;3.10;;;21.50;99.90;;;;;;5079483;28;20975;-62
2023/09/21 09:31:44;;;;;;;3.03;2.70;;;21.40;99.90;;;;;;5080632;28;20485;-61
2023/09/21 09:34:16;;;;;;;4.50;2.70;;;21.50;99.90;;;;;;5081209;28;20516;-64
2023/09/21 09:36:46;;;;;;;3.00;2.40;;;21.50;99.90;;;;;;5081574;28;20493;-62
2023/09/21 09:39:15;;;;;;;2.63;2.23;;;21.60;99.90;;;;;;5081479;28;20917;-62
2023/09/21 09:41:46;;;;;;;4.90;2.63;;;21.80;99.90;;;;;;5081994;28;20482;-60
2023/09/21 09:44:18;;;;;;;3.83;3.53;;;22.00;99.90;;;;;;5082569;28;20514;-60
2023/09/21 09:46:49;;;;;;;5.93;2.87;;;22.10;99.90;;;;;;5080717;28;20584;-61
2023/09/21 09:49:22;;;;;;;4.30;2.90;;;22.30;99.90;;;;;;5080975;28;20469;-61
2023/09/21 09:51:56;;;;;;;2.87;2.63;;;22.40;99.90;;;;;;5080594;28;20562;-62
2023/09/21 09:54:26;;;;;;;5.73;2.23;;;22.50;99.90;;;;;;5073944;28;21012;-64
2023/09/21 09:56:59;;;;;;;5.33;2.80;;;22.60;99.90;;;;;;5077426;28;20517;-61
2023/09/21 09:59:28;;;;;;;4.23;2.47;;;22.70;99.90;;;;;;5082195;28;20552;-61
2023/09/21 10:01:58;;;;;;;2.27;2.13;;;22.80;99.90;;;;;;5077820;28;20966;-61
2023/09/21 10:04:33;;;;;;;2.97;2.23;;;22.80;99.90;;;;;;5076941;28;20470;-61
2023/09/21 10:07:01;;;;;;;2.80;2.50;;;22.80;99.90;;;;;;5080623;28;20495;-62
2023/09/21 10:09:29;;;;;;;2.40;2.10;;;22.90;99.90;;;;;;5079979;28;20465;-64
2023/09/21 10:11:59;;;;;;;2.63;2.43;;;23.00;99.90;;;;;;5075513;28;20488;-62
2023/09/21 10:14:33;;;;;;;2.50;2.30;;;23.10;99.90;;;;;;5079802;28;20491;-62
2023/09/21 10:17:05;;;;;;;3.43;2.40;;;23.20;99.90;;;;;;5079798;28;20484;-61
2023/09/21 10:19:38;;;;;;;3.23;2.33;;;23.40;99.90;;;;;;5079463;28;20566;-63
2023/09/21 10:22:22;;;;;;;2.67;2.27;;;23.40;99.90;;;;;;5078237;28;20548;-61
2023/09/21 10:24:51;;;;;;;2.17;1.97;;;23.60;99.90;;;;;;5076072;28;21199;-62
2023/09/21 10:27:23;;;;;;;3.23;2.37;;;23.70;99.90;;;;;;5072831;28;20927;-61
2023/09/21 10:29:59;;;;;;;3.10;2.50;;;23.80;99.90;;;;;;5078916;28;20550;-62
2023/09/21 10:32:42;;;;;;;2.67;2.47;;;23.90;99.90;;;;;;5075739;28;20479;-64
2023/09/21 10:35:15;;;;;;;3.33;2.50;;;24.10;99.90;;;;;;5076948;28;20579;-62
2023/09/21 10:37:43;;;;;;;2.70;2.23;;;24.30;99.90;;;;;;5072950;28;20461;-62
2023/09/21 10:40:20;;;;;;;2.67;2.40;;;24.50;99.90;;;;;;5077217;28;20479;-64
2023/09/21 10:42:48;;;;;;;3.10;2.60;;;24.70;99.90;;;;;;5080439;28;20510;-61
2023/09/21 10:45:18;;;;;;;2.53;2.33;;;24.90;99.90;;;;;;5077267;28;20935;-61
2023/09/21 10:47:49;;;;;;;2.80;2.60;;;25.10;99.90;;;;;;5068450;28;20682;-61
2023/09/21 10:50:19;;;;;;;4.43;2.80;;;25.30;99.90;;;;;;5074812;28;20580;-61
2023/09/21 10:52:50;;;;;;;3.57;2.63;;;25.50;99.90;;;;;;5078815;28;20882;-61
2023/09/21 10:55:20;;;;;;;4.13;2.30;;;25.60;99.90;;;;;;5077351;28;20495;-61
2023/09/21 10:57:50;;;;;;;2.77;2.23;;;25.60;99.90;;;;;;5077915;28;20484;-62
2023/09/21 11:00:20;;;;;;;3.13;2.23;;;25.60;99.90;;;;;;5081975;28;20468;-62
2023/09/21 11:02:50;;;;;;;3.83;2.43;;;25.70;99.90;;;;;;5082166;28;20507;-61
2023/09/21 11:05:21;;;;;;;4.17;2.37;;;25.80;99.90;;;;;;5079025;28;20466;-62
2023/09/21 11:07:51;;;;;;;2.63;2.43;;;25.90;99.90;;;;;;5079934;28;20468;-62
2023/09/21 11:10:20;;;;;;;2.40;2.20;;;25.90;99.90;;;;;;5084420;28;20643;-62
2023/09/21 11:12:49;;;;;;;2.43;2.23;;;26.00;99.90;;;;;;5081298;28;20565;-61
2023/09/21 11:15:17;;;;;;;2.50;2.30;;;26.10;99.90;;;;;;5080439;28;20544;-61
2023/09/21 11:17:48;;;;;;;2.50;2.30;;;26.20;99.90;;;;;;5084844;28;20474;-62
2023/09/21 11:20:19;;;;;;;2.30;2.10;;;26.10;99.90;;;;;;5081766;28;20973;-62
2023/09/21 11:22:49;;;;;;;2.70;2.50;;;26.10;99.90;;;;;;5076962;28;20492;-60
2023/09/21 11:25:20;;;;;;;3.50;2.50;;;26.00;99.90;;;;;;5082495;28;20555;-63
2023/09/21 11:27:50;;;;;;;2.50;2.07;;;25.90;99.90;;;;;;5080324;28;20579;-62
2023/09/21 11:30:18;;;;;;;2.30;2.10;;;25.90;99.90;;;;;;5082141;28;20477;-63
2023/09/21 11:32:49;;;;;;;2.50;2.30;;;25.90;99.90;;;;;;5082481;28;20519;-61
2023/09/21 11:35:20;;;;;;;2.50;2.30;;;25.90;99.90;;;;;;5084432;28;21059;-62
2023/09/21 11:37:49;;;;;;;3.70;2.40;;;25.80;99.90;;;;;;5081482;28;20946;-61
2023/09/21 11:40:21;;;;;;;2.17;1.97;;;25.70;99.90;;;;;;5082849;28;20461;-62
2023/09/21 11:42:51;;;;;;;3.10;2.27;;;25.80;99.90;;;;;;5079053;28;20575;-63
2023/09/21 11:45:20;;;;;;;2.20;1.93;;;25.80;99.90;;;;;;5083332;28;20469;-61
2023/09/21 11:47:54;;;;;;;3.20;2.23;;;25.80;99.90;;;;;;5081697;28;20616;-62
2023/09/21 11:50:25;;;;;;;2.40;2.20;;;25.90;99.90;;;;;;5079674;28;20568;-62
2023/09/21 11:52:56;;;;;;;2.40;2.17;;;25.90;99.90;;;;;;5078133;28;20618;-61
2023/09/21 11:55:25;;;;;;;4.20;2.37;;;25.90;99.90;;;;;;5081301;28;20649;-61
2023/09/21 11:57:54;;;;;;;2.60;2.40;;;26.10;99.90;;;;;;5075777;28;20481;-59
2023/09/21 12:00:43;;;;;;;2.67;2.43;;;26.20;99.90;;;;;;5080695;28;22119;-59
2023/09/21 12:03:20;;;;;;;6.00;2.77;;;26.20;99.90;;;;;;5082957;28;20503;-59
2023/09/21 12:05:49;;;;;;;3.07;2.10;;;26.20;99.90;;;;;;5081918;28;20515;-59
2023/09/21 12:08:19;;;;;;;3.20;1.93;;;26.20;99.90;;;;;;5081338;28;20496;-60
2023/09/21 12:10:50;;;;;;;2.47;2.27;;;26.30;99.90;;;;;;5078443;28;20476;-60
2023/09/21 12:13:19;;;;;;;2.30;1.90;;;26.40;99.90;;;;;;5082209;28;20544;-60
2023/09/21 12:15:47;;;;;;;3.30;2.00;;;26.40;99.90;;;;;;5081997;28;20576;-59
2023/09/21 12:18:16;;;;;;;3.30;2.30;;;26.70;99.90;;;;;;5075452;28;20483;-59
2023/09/21 12:20:56;;;;;;;3.10;1.97;;;27.00;99.90;;;;;;5062480;28;21046;-60
2023/09/21 12:23:25;;;;;;;2.13;1.93;;;27.10;99.90;;;;;;5073730;28;20496;-60
2023/09/21 12:25:54;;;;;;;2.20;1.97;;;27.20;99.90;;;;;;5073642;28;20503;-59
2023/09/21 12:28:22;;;;;;;2.73;2.50;;;27.20;99.90;;;;;;5073574;28;20465;-60
2023/09/21 12:30:51;;;;;;;2.10;2.00;;;27.40;99.90;;;;;;5082473;28;20564;-60
2023/09/21 12:33:21;;;;;;;2.43;2.23;;;27.60;99.90;;;;;;5081267;28;20872;-59
2023/09/21 12:36:12;;;;;;;3.37;2.03;;;27.80;99.90;;;;;;5070026;28;20481;-59
2023/09/21 12:38:44;;;;;;;2.20;2.03;;;28.30;99.90;;;;;;5074003;28;20571;-61
2023/09/21 12:41:14;;;;;;;2.93;2.27;;;28.80;97.90;;;;;;5072315;28;20560;-61
2023/09/21 12:43:42;;;;;;;3.20;2.43;;;29.10;95.20;;;;;;5075645;28;20594;-64
2023/09/21 12:46:11;;;;;;;2.03;1.93;;;29.30;93.40;;;;;;5078348;28;20595;-65
2023/09/21 12:48:39;;;;;;;5.33;2.23;;;29.60;89.90;;;;;;5077499;28;20464;-65
2023/09/21 12:51:08;;;;;;;3.77;2.90;;;30.40;87.50;;;;;;5076892;28;20785;-61
2023/09/21 12:53:38;;;;;;;1.90;1.67;;;31.40;78.60;;;;;;5073329;28;20857;-61
2023/09/21 12:56:06;;;;;;;2.70;2.10;;;31.40;68.70;;;;;;5071533;28;20569;-60
2023/09/21 12:58:35;;;;;;;2.50;1.97;;;30.90;68.10;;;;;;5075471;28;20505;-61
2023/09/21 13:01:05;;;;;;;3.30;2.17;;;30.30;71.60;;;;;;5080111;28;20800;-61